createdAt,value
2019-06-20T00:00:42.498Z,90.90
2019-06-20T00:03:12.729Z,91.00
2019-06-20T00:05:43.020Z,91.00
2019-06-20T00:08:13.599Z,91.20
2019-06-20T00:10:43.878Z,91.30
2019-06-20T00:13:14.105Z,91.70
2019-06-20T00:15:44.483Z,91.50
2019-06-20T00:18:14.707Z,91.70
2019-06-20T00:20:44.903Z,91.60
2019-06-20T00:23:15.123Z,91.60
2019-06-20T00:25:45.330Z,91.60
2019-06-20T00:28:15.559Z,91.70
2019-06-20T00:30:45.780Z,91.70
2019-06-20T00:33:15.983Z,91.60
2019-06-20T00:35:46.169Z,91.40
2019-06-20T00:38:16.409Z,91.10
2019-06-20T00:40:46.633Z,91.00
2019-06-20T00:43:18.345Z,91.00
2019-06-20T00:45:48.772Z,90.90
2019-06-20T00:48:18.977Z,90.40
2019-06-20T00:50:49.269Z,90.80
2019-06-20T00:53:19.481Z,97.80
2019-06-20T00:55:49.807Z,99.90
2019-06-20T00:58:20.017Z,99.90
2019-06-20T01:00:50.203Z,99.90
2019-06-20T01:03:20.459Z,99.90
2019-06-20T01:05:50.789Z,99.90
2019-06-20T01:08:21.010Z,99.90
2019-06-20T01:10:51.208Z,99.90
2019-06-20T01:13:33.043Z,99.90
2019-06-20T01:15:53.402Z,99.90
2019-06-20T01:18:23.601Z,99.90
2019-06-20T01:20:53.834Z,99.90
2019-06-20T01:23:24.027Z,99.90
2019-06-20T01:25:54.229Z,99.90
2019-06-20T01:28:24.603Z,99.90
2019-06-20T01:30:54.880Z,99.90
2019-06-20T01:33:25.119Z,99.90
2019-06-20T01:35:55.377Z,99.90
2019-06-20T01:38:25.605Z,99.90
2019-06-20T01:40:55.815Z,99.90
2019-06-20T01:43:26.027Z,99.90
2019-06-20T01:45:56.254Z,99.90
2019-06-20T01:48:38.707Z,99.90
2019-06-20T01:51:09.013Z,99.90
2019-06-20T01:53:39.229Z,99.90
2019-06-20T01:56:09.420Z,99.90
2019-06-20T01:58:39.641Z,99.90
2019-06-20T02:01:10.112Z,99.90
2019-06-20T02:03:40.313Z,99.90
2019-06-20T02:06:10.551Z,99.90
2019-06-20T02:08:40.851Z,99.90
2019-06-20T02:11:11.169Z,99.90
2019-06-20T02:13:41.415Z,99.90
2019-06-20T02:16:11.758Z,99.90
2019-06-20T02:18:41.972Z,99.90
2019-06-20T02:21:12.181Z,99.90
2019-06-20T02:23:42.449Z,99.90
2019-06-20T02:26:12.655Z,99.90
2019-06-20T02:28:42.901Z,99.90
2019-06-20T02:31:13.443Z,99.90
2019-06-20T02:33:43.680Z,99.90
2019-06-20T02:36:13.885Z,99.90
2019-06-20T02:38:44.134Z,99.90
2019-06-20T02:41:14.513Z,99.90
2019-06-20T02:43:44.763Z,99.90
2019-06-20T02:46:14.952Z,99.90
2019-06-20T02:48:45.207Z,99.90
2019-06-20T02:51:16.340Z,99.90
2019-06-20T02:53:46.569Z,99.90
2019-06-20T02:56:16.771Z,99.90
2019-06-20T02:58:46.976Z,99.90
2019-06-20T03:01:17.171Z,99.90
2019-06-20T03:03:47.367Z,99.90
2019-06-20T03:06:17.715Z,99.90
2019-06-20T03:08:47.900Z,99.90
2019-06-20T03:11:18.115Z,99.90
2019-06-20T03:13:48.314Z,99.90
2019-06-20T03:16:18.555Z,99.90
2019-06-20T03:18:48.794Z,99.90
2019-06-20T03:21:19.018Z,99.90
2019-06-20T03:23:49.235Z,99.90
2019-06-20T03:26:19.399Z,99.90
2019-06-20T03:28:49.661Z,99.90
2019-06-20T03:31:19.894Z,99.90
2019-06-20T03:33:50.105Z,99.90
2019-06-20T03:36:20.402Z,99.90
2019-06-20T03:38:50.673Z,99.90
2019-06-20T03:41:20.909Z,99.90
2019-06-20T03:43:51.092Z,99.90
2019-06-20T03:46:21.316Z,99.90
2019-06-20T03:48:51.540Z,99.90
2019-06-20T03:51:21.774Z,99.90
2019-06-20T03:53:51.986Z,99.90
2019-06-20T03:56:22.190Z,99.90
2019-06-20T03:58:52.419Z,99.90
2019-06-20T04:01:22.652Z,99.90
2019-06-20T04:03:52.846Z,99.90
2019-06-20T04:06:23.067Z,99.90
2019-06-20T04:08:53.252Z,99.90
2019-06-20T04:11:23.448Z,99.90
2019-06-20T04:13:53.647Z,99.90
2019-06-20T04:16:23.849Z,99.90
2019-06-20T04:18:54.073Z,99.90
2019-06-20T04:21:24.359Z,99.90
2019-06-20T04:23:54.574Z,99.90
2019-06-20T04:26:24.857Z,99.90
2019-06-20T04:28:55.068Z,99.90
2019-06-20T04:31:25.333Z,99.90
2019-06-20T04:33:55.549Z,99.90
2019-06-20T04:36:25.769Z,99.90
2019-06-20T04:38:56.004Z,99.90
2019-06-20T04:41:26.197Z,99.90
2019-06-20T04:43:56.406Z,99.90
2019-06-20T04:46:28.319Z,99.90
2019-06-20T04:48:58.527Z,99.90
2019-06-20T04:51:28.765Z,99.90
2019-06-20T04:53:58.964Z,99.90
2019-06-20T04:56:29.211Z,99.90
2019-06-20T04:58:59.427Z,99.90
2019-06-20T05:01:29.937Z,99.90
2019-06-20T05:04:00.154Z,99.90
2019-06-20T05:06:30.413Z,99.90
2019-06-20T05:09:00.658Z,99.90
2019-06-20T05:11:30.865Z,99.90
2019-06-20T05:14:02.148Z,99.90
2019-06-20T05:16:32.384Z,99.90
2019-06-20T05:19:02.572Z,99.90
2019-06-20T05:21:32.815Z,99.90
2019-06-20T05:24:03.060Z,99.90
2019-06-20T05:26:33.289Z,99.90
2019-06-20T05:29:05.478Z,99.90
2019-06-20T05:31:35.514Z,99.90
2019-06-20T05:34:05.798Z,99.90
2019-06-20T05:36:36.073Z,99.90
2019-06-20T05:39:07.623Z,99.90
2019-06-20T05:41:37.943Z,99.90
2019-06-20T05:44:08.157Z,99.90
2019-06-20T05:46:38.412Z,99.90
2019-06-20T05:49:08.629Z,99.90
2019-06-20T05:51:39.846Z,99.90
2019-06-20T05:54:10.135Z,99.90
2019-06-20T05:56:40.359Z,99.90
2019-06-20T05:59:10.573Z,99.90
2019-06-20T06:01:40.805Z,99.90
2019-06-20T06:04:11.020Z,99.90
2019-06-20T06:06:41.251Z,99.90
2019-06-20T06:09:11.452Z,99.90
2019-06-20T06:11:41.722Z,99.90
2019-06-20T06:14:12.031Z,99.90
2019-06-20T06:16:44.190Z,99.90
2019-06-20T06:19:14.161Z,99.90
2019-06-20T06:21:44.422Z,99.90
2019-06-20T06:24:14.625Z,99.90
2019-06-20T06:26:44.871Z,99.90
2019-06-20T06:29:15.077Z,99.90
2019-06-20T06:31:45.341Z,99.90
2019-06-20T06:34:15.689Z,99.90
2019-06-20T06:36:45.906Z,99.90
2019-06-20T06:39:16.126Z,99.90
2019-06-20T06:41:46.377Z,99.90
2019-06-20T06:44:16.641Z,99.90
2019-06-20T06:46:54.180Z,99.90
2019-06-20T06:49:18.912Z,99.90
2019-06-20T06:51:49.164Z,99.90
2019-06-20T06:54:19.377Z,99.90
2019-06-20T06:56:49.619Z,99.90
2019-06-20T06:59:19.839Z,99.90
2019-06-20T07:01:50.074Z,99.90
2019-06-20T07:04:20.751Z,99.90
2019-06-20T07:06:50.991Z,99.90
2019-06-20T07:09:21.195Z,99.90
2019-06-20T07:11:51.588Z,99.90
2019-06-20T07:14:21.854Z,99.90
2019-06-20T07:17:00.316Z,99.90
2019-06-20T07:19:24.117Z,99.90
2019-06-20T07:21:54.362Z,99.90
2019-06-20T07:24:24.623Z,99.90
2019-06-20T07:26:54.948Z,99.90
2019-06-20T07:29:25.313Z,99.90
2019-06-20T07:31:55.572Z,99.90
2019-06-20T07:34:25.813Z,99.90
2019-06-20T07:36:56.088Z,99.90
2019-06-20T07:39:26.268Z,99.90
2019-06-20T07:41:56.502Z,99.90
2019-06-20T07:44:26.699Z,99.90
2019-06-20T07:46:56.970Z,99.90
2019-06-20T07:49:27.164Z,99.90
2019-06-20T07:51:57.417Z,99.90
2019-06-20T07:54:27.627Z,99.90
2019-06-20T07:56:57.857Z,99.90
2019-06-20T07:59:28.074Z,99.90
2019-06-20T08:01:58.361Z,99.90
2019-06-20T08:04:28.564Z,99.90
2019-06-20T08:06:58.826Z,99.90
2019-06-20T08:09:43.890Z,99.90
2019-06-20T08:12:00.928Z,99.90
2019-06-20T08:14:31.297Z,99.90
2019-06-20T08:17:01.533Z,99.90
2019-06-20T08:19:31.764Z,99.90
2019-06-20T08:22:01.990Z,99.90
2019-06-20T08:24:32.235Z,99.90
2019-06-20T08:27:03.246Z,99.90
2019-06-20T08:29:34.904Z,99.90
2019-06-20T08:32:06.527Z,99.90
2019-06-20T08:34:36.862Z,99.90
2019-06-20T08:37:07.250Z,99.90
2019-06-20T08:39:37.406Z,99.90
2019-06-20T08:42:07.780Z,99.90
2019-06-20T08:44:37.979Z,99.90
2019-06-20T08:47:08.999Z,99.90
2019-06-20T08:49:39.212Z,99.90
2019-06-20T08:52:09.464Z,99.90
2019-06-20T08:54:39.673Z,99.90
2019-06-20T08:57:09.935Z,99.90
2019-06-20T08:59:40.216Z,99.90
2019-06-20T09:02:10.459Z,99.90
2019-06-20T09:04:40.731Z,99.90
2019-06-20T09:07:12.107Z,99.90
2019-06-20T09:09:42.305Z,99.90
2019-06-20T09:12:12.526Z,99.90
2019-06-20T09:14:42.725Z,99.90
2019-06-20T09:17:13.225Z,99.90
2019-06-20T09:19:43.398Z,99.90
2019-06-20T09:22:13.629Z,99.90
2019-06-20T09:24:43.855Z,99.90
2019-06-20T09:27:14.105Z,99.90
2019-06-20T09:29:44.314Z,99.90
2019-06-20T09:32:14.628Z,99.90
2019-06-20T09:34:44.856Z,99.90
2019-06-20T09:37:15.161Z,99.90
2019-06-20T09:39:45.388Z,99.90
2019-06-20T09:42:15.715Z,99.90
2019-06-20T09:44:45.925Z,99.90
2019-06-20T09:47:16.220Z,99.90
2019-06-20T09:49:49.185Z,99.90
2019-06-20T09:52:18.365Z,99.90
2019-06-20T09:54:50.074Z,99.90
2019-06-20T09:57:20.486Z,99.90
2019-06-20T10:00:02.774Z,99.90
2019-06-20T10:02:22.623Z,99.90
2019-06-20T10:04:52.823Z,99.90
2019-06-20T10:07:23.058Z,99.90
2019-06-20T10:09:54.125Z,99.90
2019-06-20T10:12:24.516Z,99.90
2019-06-20T10:14:56.175Z,99.90
2019-06-20T10:17:26.605Z,99.90
2019-06-20T10:19:56.832Z,99.90
2019-06-20T10:22:27.074Z,99.90
2019-06-20T10:24:57.932Z,99.90
2019-06-20T10:27:28.215Z,99.90
2019-06-20T10:30:13.465Z,99.90
2019-06-20T10:32:30.888Z,99.90
2019-06-20T10:35:01.119Z,99.90
2019-06-20T10:37:31.315Z,99.90
2019-06-20T10:40:01.531Z,99.90
2019-06-20T10:42:31.787Z,99.90
2019-06-20T10:45:01.985Z,99.90
2019-06-20T10:47:35.940Z,99.90
2019-06-20T10:50:07.424Z,99.90
2019-06-20T10:52:37.700Z,99.90
2019-06-20T10:55:09.098Z,99.90
2019-06-20T10:57:41.280Z,99.90
2019-06-20T11:00:26.802Z,99.90
2019-06-20T11:02:47.007Z,99.90
2019-06-20T11:05:19.291Z,99.90
2019-06-20T11:07:50.175Z,99.90
2019-06-20T11:10:20.827Z,99.90
2019-06-20T11:12:55.645Z,99.90
2019-06-20T11:15:23.625Z,99.90
2019-06-20T11:17:56.370Z,99.90
2019-06-20T11:20:26.391Z,99.90
2019-06-20T11:22:56.686Z,99.90
2019-06-20T11:25:27.097Z,99.90
2019-06-20T11:27:57.365Z,99.90
2019-06-20T11:30:44.885Z,99.90
2019-06-20T11:33:02.584Z,99.90
2019-06-20T11:35:33.308Z,99.90
2019-06-20T11:38:03.542Z,99.90
2019-06-20T11:40:35.256Z,99.90
2019-06-20T11:43:05.800Z,99.90
2019-06-20T11:45:37.390Z,99.90
2019-06-20T11:48:08.424Z,99.90
2019-06-20T11:50:40.009Z,99.90
2019-06-20T11:53:10.313Z,99.90
2019-06-20T11:55:40.615Z,99.90
2019-06-20T11:58:10.855Z,99.90
2019-06-20T12:00:41.076Z,99.90
2019-06-20T12:03:11.299Z,99.90
2019-06-20T12:05:43.254Z,99.90
2019-06-20T12:08:13.674Z,99.90
2019-06-20T12:10:45.182Z,99.90
2019-06-20T12:13:15.479Z,99.90
2019-06-20T12:15:46.651Z,99.90
2019-06-20T12:18:17.161Z,99.90
2019-06-20T12:20:48.726Z,99.90
2019-06-20T12:23:19.126Z,99.90
2019-06-20T12:25:49.452Z,99.90
2019-06-20T12:28:19.960Z,99.90
2019-06-20T12:30:50.497Z,99.90
2019-06-20T12:33:20.784Z,99.90
2019-06-20T12:35:51.119Z,99.90
2019-06-20T12:38:21.320Z,99.90
2019-06-20T12:40:51.617Z,99.90
2019-06-20T12:43:21.904Z,99.90
2019-06-20T12:45:52.243Z,99.90
2019-06-20T12:48:22.514Z,99.90
2019-06-20T12:50:52.781Z,99.90
2019-06-20T12:53:23.082Z,99.90
2019-06-20T12:55:53.323Z,99.90
2019-06-20T12:58:23.531Z,99.90
2019-06-20T13:00:54.029Z,99.90
2019-06-20T13:03:24.358Z,99.90
2019-06-20T13:05:54.695Z,99.90
2019-06-20T13:08:24.900Z,99.90
2019-06-20T13:10:55.206Z,99.90
2019-06-20T13:13:25.406Z,99.90
2019-06-20T13:15:55.642Z,99.90
2019-06-20T13:18:25.844Z,99.90
2019-06-20T13:20:56.044Z,99.90
2019-06-20T13:23:26.283Z,99.90
2019-06-20T13:25:56.569Z,99.90
2019-06-20T13:28:26.815Z,99.90
2019-06-20T13:30:57.036Z,99.90
2019-06-20T13:33:27.234Z,99.90
2019-06-20T13:35:57.583Z,99.90
2019-06-20T13:38:27.798Z,99.90
2019-06-20T13:40:58.788Z,99.90
2019-06-20T13:43:29.003Z,99.90
2019-06-20T13:45:59.210Z,99.90
2019-06-20T13:48:29.467Z,99.90
2019-06-20T13:50:59.834Z,99.90
2019-06-20T13:53:30.043Z,99.90
2019-06-20T13:56:00.266Z,99.90
2019-06-20T13:58:30.499Z,99.90
2019-06-20T14:01:13.049Z,99.90
2019-06-20T14:03:44.070Z,99.90
2019-06-20T14:06:15.273Z,99.90
2019-06-20T14:08:46.038Z,99.90
2019-06-20T14:11:16.570Z,99.90
2019-06-20T14:13:49.434Z,99.90
2019-06-20T14:16:18.760Z,99.60
2019-06-20T14:18:50.244Z,99.20
2019-06-20T14:21:20.632Z,98.70
2019-06-20T14:23:50.903Z,97.00
2019-06-20T14:26:21.133Z,98.50
2019-06-20T14:28:51.323Z,99.90
2019-06-20T14:31:21.535Z,99.90
2019-06-20T14:33:51.771Z,99.90
2019-06-20T14:36:22.074Z,99.90
2019-06-20T14:38:53.723Z,99.90
2019-06-20T14:41:24.182Z,99.90
2019-06-20T14:43:54.459Z,99.90
2019-06-20T14:46:24.740Z,99.90
2019-06-20T14:48:54.933Z,99.90
2019-06-20T14:51:25.157Z,99.90
2019-06-20T14:53:55.346Z,99.90
2019-06-20T14:56:25.578Z,99.90
2019-06-20T14:58:55.757Z,99.90
2019-06-20T15:01:25.979Z,99.90
2019-06-20T15:03:56.175Z,99.90
2019-06-20T15:06:26.511Z,99.90
2019-06-20T15:09:03.229Z,99.90
2019-06-20T15:11:28.674Z,99.90
2019-06-20T15:13:58.899Z,99.90
2019-06-20T15:16:29.105Z,99.90
2019-06-20T15:18:59.310Z,99.90
2019-06-20T15:21:29.530Z,99.90
2019-06-20T15:23:59.761Z,99.90
2019-06-20T15:26:29.993Z,99.90
2019-06-20T15:29:00.194Z,99.90
2019-06-20T15:31:30.416Z,99.90
2019-06-20T15:34:00.639Z,99.90
2019-06-20T15:36:30.849Z,99.90
2019-06-20T15:39:01.081Z,99.90
2019-06-20T15:41:31.341Z,99.90
2019-06-20T15:44:01.553Z,99.90
2019-06-20T15:46:31.785Z,99.90
2019-06-20T15:49:15.467Z,99.90
2019-06-20T15:51:33.916Z,99.90
2019-06-20T15:54:04.498Z,99.90
2019-06-20T15:56:34.797Z,99.90
2019-06-20T15:59:05.100Z,99.90
2019-06-20T16:01:35.346Z,99.90
2019-06-20T16:04:05.611Z,99.90
2019-06-20T16:06:35.877Z,99.90
2019-06-20T16:09:09.118Z,99.90
2019-06-20T16:11:41.122Z,99.90
2019-06-20T16:14:11.352Z,99.90
2019-06-20T16:16:41.596Z,99.90
2019-06-20T16:19:11.790Z,99.90
2019-06-20T16:21:42.111Z,99.90
2019-06-20T16:24:12.794Z,99.90
2019-06-20T16:26:43.280Z,99.90
2019-06-20T16:29:13.600Z,99.90
2019-06-20T16:31:43.862Z,99.90
2019-06-20T16:34:14.075Z,99.90
2019-06-20T16:36:44.367Z,99.90
2019-06-20T16:39:14.591Z,99.90
2019-06-20T16:41:44.816Z,99.90
2019-06-20T16:44:15.710Z,99.90
2019-06-20T16:46:46.011Z,99.90
2019-06-20T16:49:16.211Z,99.90
2019-06-20T16:51:46.551Z,99.90
2019-06-20T16:54:18.449Z,99.90
2019-06-20T16:56:48.676Z,99.90
2019-06-20T16:59:18.887Z,99.90
2019-06-20T17:01:49.185Z,99.90
2019-06-20T17:04:19.404Z,99.90
2019-06-20T17:06:49.764Z,99.90
2019-06-20T17:09:19.991Z,99.90
2019-06-20T17:11:50.182Z,99.90
2019-06-20T17:14:20.475Z,99.90
2019-06-20T17:16:50.679Z,99.90
2019-06-20T17:19:20.994Z,99.90
2019-06-20T17:21:51.400Z,99.90
2019-06-20T17:24:21.619Z,99.90
2019-06-20T17:26:52.528Z,99.90
2019-06-20T17:29:22.880Z,99.90
2019-06-20T17:31:53.185Z,99.90
2019-06-20T17:34:23.497Z,99.90
2019-06-20T17:36:53.734Z,99.90
2019-06-20T17:39:23.980Z,99.90
2019-06-20T17:41:55.413Z,99.90
2019-06-20T17:44:27.546Z,99.90
2019-06-20T17:46:58.121Z,99.90
2019-06-20T17:49:28.612Z,99.90
2019-06-20T17:51:59.857Z,99.90
2019-06-20T17:54:30.089Z,99.90
2019-06-20T17:57:00.352Z,99.90
2019-06-20T17:59:30.679Z,99.90
2019-06-20T18:02:00.940Z,99.90
2019-06-20T18:04:31.200Z,99.90
2019-06-20T18:07:01.475Z,99.90
2019-06-20T18:09:31.798Z,99.90
2019-06-20T18:12:02.027Z,99.90
2019-06-20T18:14:34.223Z,99.90
2019-06-20T18:17:04.181Z,99.90
2019-06-20T18:19:34.433Z,99.90
2019-06-20T18:22:04.648Z,99.90
2019-06-20T18:24:35.707Z,99.90
2019-06-20T18:27:05.975Z,99.90
2019-06-20T18:29:36.275Z,99.90
2019-06-20T18:32:06.457Z,99.90
2019-06-20T18:34:36.677Z,99.90
2019-06-20T18:37:06.889Z,99.90
2019-06-20T18:39:37.161Z,99.90
2019-06-20T18:42:07.392Z,99.90
2019-06-20T18:44:37.628Z,99.90
2019-06-20T18:47:07.842Z,99.90
2019-06-20T18:49:38.742Z,99.90
2019-06-20T18:52:09.015Z,99.90
2019-06-20T18:54:39.254Z,99.90
2019-06-20T18:57:09.554Z,99.90
2019-06-20T18:59:41.343Z,99.90
2019-06-20T19:02:11.679Z,99.90
2019-06-20T19:04:47.822Z,99.90
2019-06-20T19:07:14.045Z,99.90
2019-06-20T19:09:44.291Z,99.90
2019-06-20T19:12:14.647Z,99.90
2019-06-20T19:14:44.893Z,99.90
2019-06-20T19:17:15.512Z,99.90
2019-06-20T19:19:45.782Z,99.90
2019-06-20T19:22:15.989Z,99.90
2019-06-20T19:24:46.303Z,99.90
2019-06-20T19:27:17.321Z,99.90
2019-06-20T19:29:49.692Z,99.90
2019-06-20T19:32:19.511Z,99.90
2019-06-20T19:35:01.322Z,99.90
2019-06-20T19:37:22.817Z,99.90
2019-06-20T19:39:53.165Z,99.90
2019-06-20T19:42:23.348Z,99.90
2019-06-20T19:44:53.689Z,99.90
2019-06-20T19:47:23.954Z,99.90
2019-06-20T19:49:54.210Z,99.90
2019-06-20T19:52:24.471Z,99.90
2019-06-20T19:54:54.788Z,99.90
2019-06-20T19:57:25.055Z,99.90
2019-06-20T19:59:55.367Z,99.90
2019-06-20T20:02:25.629Z,99.90
2019-06-20T20:04:55.929Z,99.90
2019-06-20T20:07:26.201Z,99.90
2019-06-20T20:09:56.502Z,99.90
2019-06-20T20:12:26.710Z,99.90
2019-06-20T20:14:56.995Z,99.90
2019-06-20T20:17:27.199Z,99.90
2019-06-20T20:19:58.642Z,99.90
2019-06-20T20:22:28.863Z,99.90
2019-06-20T20:24:59.125Z,99.90
2019-06-20T20:27:29.347Z,99.90
2019-06-20T20:29:59.609Z,99.90
2019-06-20T20:32:29.821Z,99.90
2019-06-20T20:35:00.134Z,99.90
2019-06-20T20:37:30.444Z,99.90
2019-06-20T20:40:00.713Z,99.90
2019-06-20T20:42:30.955Z,99.90
2019-06-20T20:45:01.217Z,99.90
2019-06-20T20:47:31.498Z,99.90
2019-06-20T20:50:01.722Z,99.90
2019-06-20T20:52:31.919Z,99.90
2019-06-20T20:55:05.346Z,99.90
2019-06-20T20:57:36.152Z,99.90
2019-06-20T21:00:26.189Z,99.90
2019-06-20T21:02:58.154Z,99.90
2019-06-20T21:05:28.492Z,99.90
2019-06-20T21:07:58.725Z,99.90
2019-06-20T21:10:29.108Z,99.90
2019-06-20T21:12:59.389Z,99.90
2019-06-20T21:15:29.750Z,99.90
2019-06-20T21:17:59.941Z,99.90
2019-06-20T21:20:30.190Z,99.90
2019-06-20T21:23:00.408Z,99.90
2019-06-20T21:25:32.326Z,99.90
2019-06-20T21:28:02.770Z,99.90
2019-06-20T21:30:33.136Z,99.90
2019-06-20T21:33:03.344Z,99.90
2019-06-20T21:35:33.633Z,99.90
2019-06-20T21:38:03.929Z,99.90
2019-06-20T21:40:34.382Z,99.90
2019-06-20T21:43:04.579Z,99.90
2019-06-20T21:45:34.820Z,99.90
2019-06-20T21:48:05.672Z,99.90
2019-06-20T21:50:36.096Z,99.90
2019-06-20T21:53:06.592Z,99.90
2019-06-20T21:55:36.866Z,99.90
2019-06-20T21:58:07.233Z,99.90
2019-06-20T22:00:43.409Z,99.90
2019-06-20T22:03:14.113Z,99.90
2019-06-20T22:05:44.528Z,99.90
2019-06-20T22:08:15.007Z,99.90
2019-06-20T22:10:45.256Z,99.90
2019-06-20T22:13:17.156Z,99.90
2019-06-20T22:15:48.425Z,99.90
2019-06-20T22:18:18.820Z,99.90
2019-06-20T22:20:49.115Z,99.90
2019-06-20T22:23:19.438Z,99.90
2019-06-20T22:25:49.680Z,99.90
2019-06-20T22:28:19.942Z,99.90
2019-06-20T22:30:53.870Z,99.90
2019-06-20T22:33:24.206Z,99.90
2019-06-20T22:35:54.556Z,99.90
2019-06-20T22:38:24.871Z,99.90
2019-06-20T22:40:55.156Z,99.90
2019-06-20T22:43:25.381Z,99.90
2019-06-20T22:45:55.593Z,99.90
2019-06-20T22:48:25.928Z,99.90
2019-06-20T22:50:56.304Z,99.90
2019-06-20T22:53:27.882Z,99.90
2019-06-20T22:55:58.116Z,99.90
2019-06-20T22:58:28.345Z,99.90
2019-06-20T23:00:58.566Z,99.90
2019-06-20T23:03:28.966Z,99.90
2019-06-20T23:05:59.163Z,99.90
2019-06-20T23:08:29.474Z,99.90
2019-06-20T23:10:59.718Z,99.90
2019-06-20T23:13:30.022Z,99.90
2019-06-20T23:16:00.266Z,99.90
2019-06-20T23:18:30.515Z,99.90
2019-06-20T23:21:04.971Z,99.90
2019-06-20T23:23:32.671Z,99.90
2019-06-20T23:26:04.524Z,99.90
2019-06-20T23:28:34.753Z,99.90
2019-06-20T23:31:05.285Z,99.90
2019-06-20T23:33:35.540Z,99.90
2019-06-20T23:36:05.807Z,99.90
2019-06-20T23:38:36.059Z,99.90
2019-06-20T23:41:06.257Z,99.90
2019-06-20T23:43:36.487Z,99.90
2019-06-20T23:46:06.675Z,99.90
2019-06-20T23:48:36.923Z,99.90
2019-06-20T23:51:07.110Z,99.90
2019-06-20T23:53:37.354Z,99.90
2019-06-20T23:56:08.083Z,99.90
2019-06-20T23:58:38.495Z,99.90
